Time;durP1;ratioP1;P1;durP2;ratioP2;P2;SDS_P1;SDS_P2;PMS_P1;PMS_P2;Temp;Humidity;BMP_temperature;BMP_pressure;BME280_temperature;BME280_humidity;BME280_pressure;Samples;Min_cycle;Max_cycle;Signal;HPM_P1;HPM_P2
2023/11/10 00:01:26;;;;;;;0.40;0.40;;;8.20;99.90;;;;;;6227630;28;20042;-76
2023/11/10 00:04:28;;;;;;;0.30;0.20;;;8.30;99.90;;;;;;6227356;28;20053;-76
2023/11/10 00:07:31;;;;;;;0.50;0.50;;;8.40;99.90;;;;;;6227720;28;20052;-77
2023/11/10 00:10:33;;;;;;;0.85;0.55;;;8.50;99.90;;;;;;6227996;28;20057;-75
2023/11/10 00:13:35;;;;;;;0.60;0.50;;;8.60;99.90;;;;;;6227677;28;20525;-76
2023/11/10 00:16:36;;;;;;;0.70;0.40;;;8.60;99.90;;;;;;6227414;28;20050;-76
2023/11/10 00:19:38;;;;;;;1.27;0.50;;;8.60;99.90;;;;;;6228290;28;20057;-75
2023/11/10 00:22:41;;;;;;;0.20;0.20;;;8.60;99.90;;;;;;6222678;28;20077;-76
2023/11/10 00:25:43;;;;;;;0.57;0.22;;;8.70;99.90;;;;;;6215814;28;20050;-75
2023/11/10 00:28:45;;;;;;;0.35;0.35;;;8.70;99.90;;;;;;6223637;28;20076;-76
2023/11/10 00:31:46;;;;;;;1.95;0.32;;;8.70;99.90;;;;;;6223725;28;20073;-77
2023/11/10 00:34:48;;;;;;;0.40;0.40;;;8.80;99.90;;;;;;6223583;28;20410;-76
2023/11/10 00:37:51;;;;;;;0.63;0.30;;;8.80;99.90;;;;;;6222796;28;20188;-76
2023/11/10 00:40:53;;;;;;;0.60;0.43;;;8.80;99.90;;;;;;6222920;28;20053;-76
2023/11/10 00:43:54;;;;;;;0.30;0.30;;;8.90;99.90;;;;;;6223399;28;20050;-76
2023/11/10 00:46:56;;;;;;;0.75;0.52;;;8.90;99.90;;;;;;6223795;28;20415;-75
2023/11/10 00:49:58;;;;;;;0.28;0.28;;;8.90;99.90;;;;;;6224778;28;20041;-75
2023/11/10 00:53:01;;;;;;;1.67;0.50;;;8.90;99.90;;;;;;6224080;28;20045;-76
2023/11/10 00:56:02;;;;;;;0.30;0.30;;;8.90;99.90;;;;;;6223217;28;20054;-76
2023/11/10 00:59:05;;;;;;;0.20;0.20;;;8.90;99.90;;;;;;6222661;28;20049;-76
2023/11/10 01:02:06;;;;;;;0.60;0.60;;;8.90;99.90;;;;;;6222580;28;20047;-76
2023/11/10 01:05:11;;;;;;;0.90;0.28;;;8.90;99.90;;;;;;6222458;28;20431;-75
2023/11/10 01:08:14;;;;;;;0.40;0.25;;;8.90;99.90;;;;;;6223207;28;20046;-77
2023/11/10 01:11:17;;;;;;;0.65;0.30;;;8.90;99.90;;;;;;6222455;28;20053;-76
2023/11/10 01:14:20;;;;;;;2.05;0.30;;;8.90;99.90;;;;;;6222755;28;20050;-77
2023/11/10 01:17:22;;;;;;;1.27;0.38;;;8.90;99.90;;;;;;6222090;28;20129;-76
2023/11/10 01:20:24;;;;;;;0.47;0.40;;;8.90;99.90;;;;;;6222631;28;20050;-75
2023/11/10 01:23:27;;;;;;;2.10;0.95;;;8.90;99.90;;;;;;6221939;28;20744;-75
2023/11/10 01:26:28;;;;;;;0.45;0.30;;;8.90;99.90;;;;;;6222057;28;20426;-75
2023/11/10 01:29:30;;;;;;;3.40;0.20;;;8.80;99.90;;;;;;6222129;28;20449;-75
2023/11/10 01:32:32;;;;;;;0.30;0.20;;;8.80;99.90;;;;;;6221899;28;20057;-75
2023/11/10 01:35:34;;;;;;;0.25;0.25;;;8.80;99.90;;;;;;6221550;28;20056;-75
2023/11/10 01:38:37;;;;;;;0.55;0.30;;;8.70;99.90;;;;;;6221892;28;20141;-75
2023/11/10 01:41:39;;;;;;;0.50;0.43;;;8.70;99.90;;;;;;6221832;28;20046;-75
2023/11/10 01:44:41;;;;;;;0.32;0.32;;;8.70;99.90;;;;;;6221976;28;20127;-75
2023/11/10 01:47:45;;;;;;;2.60;0.68;;;8.70;99.90;;;;;;6220742;28;20052;-75
2023/11/10 01:50:46;;;;;;;0.20;0.20;;;8.70;99.90;;;;;;6219054;28;20046;-75
2023/11/10 01:53:49;;;;;;;0.17;0.17;;;8.70;99.90;;;;;;6221555;28;20057;-75
2023/11/10 01:56:52;;;;;;;0.25;0.22;;;8.70;99.90;;;;;;6221429;28;20458;-75
2023/11/10 01:59:59;;;;;;;3.83;0.50;;;8.60;99.90;;;;;;6221970;28;20061;-75
2023/11/10 02:03:03;;;;;;;0.38;0.30;;;8.60;99.90;;;;;;6221380;28;20060;-76
2023/11/10 02:06:08;;;;;;;4.97;0.70;;;8.60;99.90;;;;;;6221397;28;20046;-76
2023/11/10 02:09:12;;;;;;;0.45;0.40;;;8.60;99.90;;;;;;6220938;28;20045;-75
2023/11/10 02:12:14;;;;;;;1.23;0.60;;;8.60;99.90;;;;;;6221600;28;20135;-76
2023/11/10 02:15:17;;;;;;;0.32;0.32;;;8.60;99.90;;;;;;6221209;28;20048;-75
2023/11/10 02:18:19;;;;;;;3.95;0.85;;;8.60;99.90;;;;;;6221264;28;20057;-76
2023/11/10 02:21:20;;;;;;;0.50;0.50;;;8.60;99.90;;;;;;6220736;28;20050;-76
2023/11/10 02:24:27;;;;;;;0.38;0.28;;;8.60;99.90;;;;;;6221635;28;20085;-75
2023/11/10 02:27:30;;;;;;;5.65;0.70;;;8.60;99.90;;;;;;6221307;28;20045;-76
2023/11/10 02:30:32;;;;;;;2.10;0.30;;;8.60;99.90;;;;;;6220646;28;20052;-77
2023/11/10 02:33:34;;;;;;;1.05;0.82;;;8.60;99.90;;;;;;6222034;28;20053;-76
2023/11/10 02:36:37;;;;;;;2.90;0.70;;;8.70;99.90;;;;;;6223607;28;20041;-77
2023/11/10 02:43:37;;;;;;;3.28;0.40;;;8.70;99.90;;;;;;6219880;28;20519;-76
2023/11/10 02:46:38;;;;;;;0.73;0.55;;;8.70;99.90;;;;;;6220288;28;20054;-77
2023/11/10 02:49:40;;;;;;;0.70;0.40;;;8.60;99.90;;;;;;6223244;28;20054;-77
2023/11/10 02:52:42;;;;;;;0.20;0.20;;;8.60;99.90;;;;;;6220605;28;20049;-77
2023/11/10 02:55:43;;;;;;;0.38;0.38;;;8.70;99.90;;;;;;6222042;28;20395;-77
2023/11/10 02:58:47;;;;;;;1.13;0.65;;;8.70;99.90;;;;;;6221278;28;20042;-76
2023/11/10 03:01:48;;;;;;;2.92;0.50;;;8.70;99.90;;;;;;6221474;28;20426;-78
2023/11/10 03:04:50;;;;;;;0.57;0.40;;;8.70;99.90;;;;;;6221640;28;20053;-77
2023/11/10 03:07:52;;;;;;;0.25;0.15;;;8.70;99.90;;;;;;6214435;28;20052;-77
2023/11/10 03:10:54;;;;;;;0.47;0.30;;;8.70;99.90;;;;;;6221994;28;20054;-77
2023/11/10 03:13:57;;;;;;;0.28;0.17;;;8.70;99.90;;;;;;6222333;28;20525;-77
2023/11/10 03:16:59;;;;;;;2.35;0.32;;;8.80;99.90;;;;;;6222270;28;20042;-77
2023/11/10 03:20:01;;;;;;;0.30;0.30;;;8.70;99.90;;;;;;6222652;28;20049;-77
2023/11/10 03:23:02;;;;;;;0.30;0.30;;;8.70;99.90;;;;;;6221900;28;20042;-77
2023/11/10 03:26:04;;;;;;;1.42;0.30;;;8.70;99.90;;;;;;6221638;28;20050;-75
2023/11/10 03:29:08;;;;;;;1.33;0.20;;;8.70;99.90;;;;;;6220194;28;20093;-76
2023/11/10 03:32:10;;;;;;;0.20;0.20;;;8.70;99.90;;;;;;6220440;28;20064;-76
2023/11/10 03:35:11;;;;;;;0.25;0.20;;;8.70;99.90;;;;;;6220094;28;20045;-75
2023/11/10 03:38:14;;;;;;;0.52;0.30;;;8.70;99.90;;;;;;6222838;28;20066;-75
2023/11/10 03:41:15;;;;;;;0.20;0.20;;;8.70;99.90;;;;;;6221672;28;20050;-75
2023/11/10 03:44:19;;;;;;;0.45;0.40;;;8.80;99.90;;;;;;6220290;28;20046;-75
2023/11/10 03:47:20;;;;;;;0.20;0.20;;;8.80;99.90;;;;;;6218287;28;20049;-76
2023/11/10 03:50:22;;;;;;;3.25;0.75;;;8.80;99.90;;;;;;6218348;28;20062;-76
2023/11/10 03:53:24;;;;;;;5.68;0.63;;;8.80;99.90;;;;;;6219398;28;20052;-76
2023/11/10 03:56:26;;;;;;;0.40;0.40;;;8.80;99.90;;;;;;6221034;28;20433;-76
2023/11/10 03:59:30;;;;;;;0.85;0.52;;;8.80;99.90;;;;;;6224125;28;20402;-76
2023/11/10 04:02:31;;;;;;;0.65;0.65;;;8.80;99.90;;;;;;6223929;28;20081;-76
2023/11/10 04:05:33;;;;;;;1.15;0.40;;;8.80;99.90;;;;;;6223774;28;20058;-76
2023/11/10 04:08:35;;;;;;;2.17;0.52;;;8.80;99.90;;;;;;6224213;28;20419;-75
2023/11/10 04:11:37;;;;;;;0.82;0.77;;;8.70;99.90;;;;;;6224099;28;20124;-76
2023/11/10 04:14:40;;;;;;;1.00;0.20;;;8.70;99.90;;;;;;6223994;28;20116;-75
2023/11/10 04:17:42;;;;;;;0.20;0.20;;;8.70;99.90;;;;;;6224297;28;20113;-75
2023/11/10 04:20:44;;;;;;;1.08;0.20;;;8.70;99.90;;;;;;6224536;28;20412;-75
2023/11/10 04:23:46;;;;;;;2.72;0.40;;;8.60;99.90;;;;;;6224017;28;20060;-75
2023/11/10 04:26:49;;;;;;;0.20;0.20;;;8.60;99.90;;;;;;6223628;28;20395;-75
2023/11/10 04:29:52;;;;;;;0.20;0.20;;;8.60;99.90;;;;;;6223867;28;20089;-76
2023/11/10 04:32:54;;;;;;;0.77;0.50;;;8.50;99.90;;;;;;6223404;28;20056;-76
2023/11/10 04:35:56;;;;;;;0.55;0.20;;;8.50;99.90;;;;;;6224125;28;20050;-76
2023/11/10 04:38:58;;;;;;;2.53;0.55;;;8.50;99.90;;;;;;6222628;28;20137;-75
2023/11/10 04:42:01;;;;;;;0.55;0.20;;;8.40;99.90;;;;;;6223032;28;20057;-76
2023/11/10 04:45:04;;;;;;;0.20;0.20;;;8.40;99.90;;;;;;6223444;28;20069;-76
2023/11/10 04:48:06;;;;;;;0.40;0.35;;;8.40;99.90;;;;;;6223903;28;20061;-76
2023/11/10 04:51:08;;;;;;;0.30;0.17;;;8.40;99.90;;;;;;6222885;28;20049;-76
2023/11/10 04:54:12;;;;;;;0.32;0.32;;;8.40;99.90;;;;;;6223261;28;20046;-76
2023/11/10 04:57:16;;;;;;;0.43;0.20;;;8.30;99.90;;;;;;6222239;28;20054;-76
2023/11/10 05:00:23;;;;;;;0.90;0.57;;;8.30;99.90;;;;;;6223695;28;20053;-76
2023/11/10 05:03:25;;;;;;;0.20;0.20;;;8.40;99.90;;;;;;6222754;28;20387;-76
2023/11/10 05:06:30;;;;;;;0.30;0.30;;;8.30;99.90;;;;;;6222756;28;20137;-76
2023/11/10 05:09:32;;;;;;;0.30;0.30;;;8.30;99.90;;;;;;6222457;28;20534;-76
2023/11/10 05:12:36;;;;;;;0.57;0.30;;;8.30;99.90;;;;;;6224895;28;20137;-75
2023/11/10 05:15:39;;;;;;;0.98;0.30;;;8.30;99.90;;;;;;6223323;28;20053;-76
2023/11/10 05:18:40;;;;;;;3.80;0.40;;;8.30;99.90;;;;;;6221579;28;20042;-76
2023/11/10 05:21:42;;;;;;;0.20;0.20;;;8.20;99.90;;;;;;6222383;28;20048;-76
2023/11/10 05:24:44;;;;;;;0.40;0.35;;;8.20;99.90;;;;;;6222244;28;20049;-76
2023/11/10 05:27:45;;;;;;;5.65;0.38;;;8.20;99.90;;;;;;6222852;28;20041;-76
2023/11/10 05:30:49;;;;;;;0.52;0.35;;;8.20;99.90;;;;;;6222416;28;20156;-76
2023/11/10 05:33:51;;;;;;;0.30;0.30;;;8.20;99.90;;;;;;6221716;28;20041;-76
2023/11/10 05:36:53;;;;;;;0.20;0.20;;;8.20;99.90;;;;;;6222427;28;20052;-76
2023/11/10 05:39:55;;;;;;;0.30;0.22;;;8.20;99.90;;;;;;6220780;28;20050;-76
2023/11/10 05:42:57;;;;;;;1.65;0.20;;;8.20;99.90;;;;;;6221849;28;20038;-76
2023/11/10 05:46:01;;;;;;;1.02;0.60;;;8.20;99.90;;;;;;6221890;28;20049;-77
2023/11/10 05:49:03;;;;;;;0.30;0.25;;;8.20;99.90;;;;;;6224307;28;20188;-77
2023/11/10 05:52:05;;;;;;;0.40;0.32;;;8.20;99.90;;;;;;6221834;28;20059;-77
2023/11/10 05:55:08;;;;;;;1.85;0.30;;;8.20;99.90;;;;;;6222528;28;20043;-77
2023/11/10 05:58:10;;;;;;;0.30;0.30;;;8.10;99.90;;;;;;6221646;28;20050;-77
2023/11/10 06:01:13;;;;;;;0.52;0.15;;;8.20;99.90;;;;;;6221507;28;20042;-76
2023/11/10 06:04:15;;;;;;;1.92;0.40;;;8.20;99.90;;;;;;6221911;28;20053;-76
2023/11/10 06:07:17;;;;;;;0.28;0.28;;;8.10;99.90;;;;;;6221771;28;20049;-77
2023/11/10 06:10:20;;;;;;;1.08;0.55;;;8.20;99.90;;;;;;6221558;28;20052;-76
2023/11/10 06:13:22;;;;;;;2.65;0.80;;;8.10;99.90;;;;;;6220679;28;20056;-76
2023/11/10 06:16:25;;;;;;;0.52;0.32;;;8.10;99.90;;;;;;6221700;28;20042;-76
2023/11/10 06:19:27;;;;;;;1.45;0.45;;;8.10;99.90;;;;;;6220434;28;20050;-77
2023/11/10 06:22:29;;;;;;;0.30;0.20;;;8.10;99.90;;;;;;6220600;28;20042;-76
2023/11/10 06:25:30;;;;;;;0.10;0.10;;;8.10;99.90;;;;;;6220966;28;20052;-76
2023/11/10 06:28:32;;;;;;;2.47;1.00;;;8.10;99.90;;;;;;6221381;28;20491;-77
2023/11/10 06:31:35;;;;;;;0.30;0.30;;;8.10;99.90;;;;;;6220116;28;20089;-77
2023/11/10 06:34:37;;;;;;;3.10;0.55;;;8.00;99.90;;;;;;6221268;28;20052;-76
2023/11/10 06:37:40;;;;;;;0.40;0.40;;;7.90;99.90;;;;;;6220389;28;20053;-75
2023/11/10 06:40:41;;;;;;;0.40;0.40;;;7.90;99.90;;;;;;6220545;28;20073;-77
2023/11/10 06:43:44;;;;;;;0.95;0.60;;;7.80;99.90;;;;;;6221031;28;20053;-76
2023/11/10 06:46:48;;;;;;;1.48;0.30;;;7.70;99.90;;;;;;6220834;28;20038;-77
2023/11/10 06:49:49;;;;;;;0.35;0.35;;;7.60;99.90;;;;;;6220221;28;20041;-77
2023/11/10 06:52:52;;;;;;;0.55;0.45;;;7.60;99.90;;;;;;6220478;28;20046;-76
2023/11/10 06:55:55;;;;;;;0.38;0.38;;;7.60;99.90;;;;;;6221136;28;20041;-76
2023/11/10 06:58:56;;;;;;;1.13;0.50;;;7.70;99.90;;;;;;6220082;28;20050;-76
2023/11/10 07:02:00;;;;;;;2.42;0.90;;;7.80;99.90;;;;;;6220221;28;20053;-76
2023/11/10 07:05:04;;;;;;;1.33;0.52;;;7.80;99.90;;;;;;6220038;28;20498;-76
2023/11/10 07:08:09;;;;;;;2.53;0.80;;;7.90;99.90;;;;;;6220958;28;20041;-76
2023/11/10 07:11:14;;;;;;;3.30;0.68;;;8.00;99.90;;;;;;6220434;28;20537;-76
2023/11/10 07:14:15;;;;;;;1.23;0.57;;;8.10;99.90;;;;;;6220131;28;20073;-76
2023/11/10 07:17:18;;;;;;;0.98;0.75;;;8.10;99.90;;;;;;6220123;28;20046;-76
2023/11/10 07:20:22;;;;;;;0.82;0.68;;;8.20;99.90;;;;;;6220690;28;20173;-76
2023/11/10 07:23:24;;;;;;;1.13;0.70;;;8.30;99.90;;;;;;6219281;28;20066;-76
2023/11/10 07:26:26;;;;;;;0.82;0.75;;;8.30;99.90;;;;;;6220468;28;20058;-76
2023/11/10 07:29:27;;;;;;;2.28;0.60;;;8.40;99.90;;;;;;6159436;28;20062;-77
2023/11/10 07:36:28;;;;;;;1.00;0.70;;;8.50;99.90;;;;;;6223781;28;20050;-76
2023/11/10 07:39:30;;;;;;;1.65;0.70;;;8.60;99.90;;;;;;6229717;28;20038;-75
2023/11/10 07:42:32;;;;;;;1.10;0.70;;;8.70;99.90;;;;;;6223160;28;20050;-76
2023/11/10 07:45:34;;;;;;;0.30;0.30;;;8.70;99.90;;;;;;6225052;28;20530;-75
2023/11/10 07:48:37;;;;;;;0.55;0.47;;;8.80;99.90;;;;;;6226340;28;20041;-75
2023/11/10 07:51:40;;;;;;;0.57;0.57;;;8.80;99.90;;;;;;6225470;28;20052;-75
2023/11/10 07:54:42;;;;;;;0.77;0.22;;;8.90;99.90;;;;;;6224752;28;20511;-76
2023/11/10 07:57:45;;;;;;;2.55;0.50;;;8.90;99.90;;;;;;6224697;28;20038;-75
2023/11/10 08:00:47;;;;;;;4.90;2.78;;;8.90;99.90;;;;;;6224574;28;20128;-76
2023/11/10 08:03:49;;;;;;;1.45;0.57;;;8.90;99.90;;;;;;6227455;28;20126;-76
2023/11/10 08:06:53;;;;;;;2.35;0.88;;;9.10;99.90;;;;;;6224432;28;20045;-77
2023/11/10 08:09:55;;;;;;;1.50;0.40;;;9.10;99.90;;;;;;6212715;28;20641;-76
2023/11/10 08:12:57;;;;;;;0.90;0.38;;;9.20;99.90;;;;;;6210391;28;20049;-77
2023/11/10 08:15:59;;;;;;;0.65;0.38;;;9.10;99.90;;;;;;6214651;28;20049;-77
2023/11/10 08:19:01;;;;;;;0.30;0.30;;;9.20;99.90;;;;;;6216537;28;20100;-78
2023/11/10 08:22:06;;;;;;;3.03;0.55;;;9.10;99.90;;;;;;6214586;28;20536;-77
2023/11/10 08:25:11;;;;;;;0.40;0.30;;;9.10;99.90;;;;;;6213012;28;20046;-78
2023/11/10 08:28:13;;;;;;;0.35;0.30;;;9.10;99.90;;;;;;6215463;28;20068;-78
2023/11/10 08:31:15;;;;;;;1.48;0.20;;;9.20;99.90;;;;;;6215558;28;20101;-76
2023/11/10 08:34:16;;;;;;;0.47;0.40;;;9.20;99.90;;;;;;6214003;28;20046;-77
2023/11/10 08:37:20;;;;;;;0.73;0.40;;;9.30;99.90;;;;;;6215027;28;20049;-77
2023/11/10 08:40:21;;;;;;;0.32;0.32;;;9.40;99.90;;;;;;6212857;28;20057;-77
2023/11/10 08:43:24;;;;;;;1.75;1.55;;;9.50;99.90;;;;;;6215647;28;20879;-77
2023/11/10 08:46:25;;;;;;;0.60;0.40;;;9.60;99.90;;;;;;6222401;28;20077;-77
2023/11/10 08:49:27;;;;;;;1.17;0.40;;;9.70;99.90;;;;;;6222840;28;20049;-77
2023/11/10 08:52:31;;;;;;;0.80;0.50;;;9.80;99.90;;;;;;6223777;28;20049;-78
2023/11/10 08:55:32;;;;;;;0.50;0.50;;;9.80;99.90;;;;;;6223647;28;20042;-77
2023/11/10 08:58:34;;;;;;;0.10;0.10;;;9.80;99.90;;;;;;6223178;28;20038;-76
2023/11/10 09:01:36;;;;;;;1.23;0.35;;;9.80;99.90;;;;;;6223392;28;20046;-77
2023/11/10 09:04:38;;;;;;;0.40;0.40;;;9.80;99.90;;;;;;6226504;28;20049;-78
2023/11/10 09:07:42;;;;;;;1.23;0.40;;;9.80;99.90;;;;;;6228390;28;20072;-77
2023/11/10 09:10:44;;;;;;;0.70;0.38;;;9.80;99.90;;;;;;6212317;28;20521;-77
2023/11/10 09:13:45;;;;;;;2.92;0.38;;;9.90;99.90;;;;;;6213680;28;20415;-77
2023/11/10 09:16:47;;;;;;;0.40;0.40;;;10.00;99.90;;;;;;6212401;28;20660;-77
2023/11/10 09:19:49;;;;;;;1.27;0.32;;;10.10;99.90;;;;;;6213863;28;20941;-77
2023/11/10 09:22:52;;;;;;;1.25;0.73;;;10.20;99.90;;;;;;6213638;28;20050;-77
2023/11/10 09:25:55;;;;;;;0.57;0.57;;;10.30;99.90;;;;;;6212246;28;20697;-78
2023/11/10 09:28:57;;;;;;;1.20;0.60;;;10.40;99.90;;;;;;6211745;28;20123;-76
2023/11/10 09:31:59;;;;;;;0.25;0.20;;;10.70;99.90;;;;;;6212608;28;20045;-77
2023/11/10 09:35:01;;;;;;;1.02;0.68;;;11.00;99.90;;;;;;6210589;28;20049;-77
2023/11/10 09:38:04;;;;;;;0.50;0.50;;;11.30;99.90;;;;;;6211809;28;20046;-78
2023/11/10 09:41:08;;;;;;;0.75;0.73;;;11.40;99.90;;;;;;6218181;28;20069;-76
2023/11/10 09:44:11;;;;;;;0.35;0.35;;;11.40;99.90;;;;;;6219814;28;20050;-78
2023/11/10 09:47:14;;;;;;;0.50;0.47;;;11.50;99.90;;;;;;6220144;28;20049;-78
2023/11/10 09:50:18;;;;;;;3.05;0.85;;;11.40;99.90;;;;;;6211243;28;20038;-77
2023/11/10 09:53:23;;;;;;;0.40;0.30;;;11.60;99.90;;;;;;6221573;28;20068;-77
2023/11/10 09:56:25;;;;;;;1.65;0.57;;;12.20;99.90;;;;;;6223209;28;20053;-77
2023/11/10 09:59:31;;;;;;;0.50;0.50;;;12.60;99.90;;;;;;6222450;28;20053;-76
2023/11/10 10:02:33;;;;;;;2.10;0.70;;;12.60;99.90;;;;;;6218377;28;20145;-77
2023/11/10 10:05:34;;;;;;;0.55;0.45;;;12.40;99.90;;;;;;6221897;28;20050;-78
2023/11/10 10:08:37;;;;;;;0.60;0.60;;;12.30;99.90;;;;;;6217444;28;20050;-77
2023/11/10 10:11:40;;;;;;;0.98;0.60;;;12.10;99.90;;;;;;6220526;28;20542;-77
2023/11/10 10:14:53;;;;;;;4.18;0.70;;;12.10;99.90;;;;;;6220813;28;20045;-77
2023/11/10 10:17:55;;;;;;;0.50;0.40;;;12.10;99.90;;;;;;6221172;28;20442;-77
2023/11/10 10:20:59;;;;;;;0.63;0.35;;;12.20;99.90;;;;;;6221080;28;20049;-78
2023/11/10 10:24:02;;;;;;;0.60;0.50;;;12.30;99.90;;;;;;6220878;28;20056;-78
2023/11/10 10:27:04;;;;;;;1.05;0.73;;;12.30;99.90;;;;;;6221125;28;20404;-78
2023/11/10 10:30:08;;;;;;;2.63;0.65;;;12.20;99.90;;;;;;6220951;28;20060;-77
2023/11/10 10:33:10;;;;;;;1.70;0.57;;;12.10;99.90;;;;;;6220920;28;20054;-77
2023/11/10 10:36:13;;;;;;;0.63;0.30;;;12.00;99.90;;;;;;6221557;28;20042;-77
2023/11/10 10:39:17;;;;;;;0.30;0.30;;;11.80;99.90;;;;;;6220556;28;20050;-78
2023/11/10 10:42:22;;;;;;;1.25;0.40;;;11.60;99.90;;;;;;6219943;28;20133;-77
2023/11/10 10:45:26;;;;;;;5.93;0.75;;;11.30;99.90;;;;;;6221107;28;20057;-76
2023/11/10 10:48:30;;;;;;;0.93;0.50;;;11.10;99.90;;;;;;6221221;28;20049;-77
2023/11/10 10:51:36;;;;;;;2.08;0.60;;;11.00;99.90;;;;;;6220393;28;20049;-77
2023/11/10 10:54:40;;;;;;;0.80;0.50;;;10.80;99.90;;;;;;6220628;28;20054;-77
2023/11/10 10:57:43;;;;;;;0.82;0.68;;;10.80;99.90;;;;;;6221009;28;20042;-77
2023/11/10 11:00:45;;;;;;;2.63;0.55;;;10.70;99.90;;;;;;6220084;28;20466;-77
2023/11/10 11:03:58;;;;;;;1.17;1.02;;;10.60;99.90;;;;;;6232419;28;20046;-77
2023/11/10 11:07:21;;;;;;;0.93;0.80;;;10.50;99.90;;;;;;6222641;28;20042;-77
2023/11/10 11:10:56;;;;;;;1.38;0.60;;;10.50;99.90;;;;;;6212962;28;20057;-77
2023/11/10 11:14:27;;;;;;;1.60;0.93;;;10.60;99.90;;;;;;6211339;28;20046;-77
2023/11/10 11:18:17;;;;;;;1.83;0.85;;;10.70;99.90;;;;;;6220383;28;20049;-77
2023/11/10 11:21:20;;;;;;;2.83;1.92;;;10.60;99.90;;;;;;6197110;28;20054;-77
2023/11/10 11:28:28;;;;;;;0.45;0.32;;;10.80;99.90;;;;;;6219938;28;20089;-77
2023/11/10 11:31:40;;;;;;;1.17;0.70;;;10.90;99.90;;;;;;6212765;28;20061;-77
2023/11/10 11:34:50;;;;;;;0.52;0.47;;;11.00;99.90;;;;;;6209337;28;20046;-77
2023/11/10 11:37:52;;;;;;;0.60;0.60;;;11.20;99.90;;;;;;6220277;28;20046;-78
2023/11/10 11:40:57;;;;;;;0.80;0.55;;;11.40;99.90;;;;;;6220044;28;20422;-78
2023/11/10 11:44:00;;;;;;;1.17;0.90;;;11.60;99.90;;;;;;6219673;28;20081;-77
2023/11/10 11:47:07;;;;;;;3.72;0.57;;;11.80;99.90;;;;;;6220331;28;20507;-77
2023/11/10 11:50:10;;;;;;;0.68;0.55;;;11.90;99.90;;;;;;6220058;28;20041;-77
2023/11/10 11:53:12;;;;;;;1.17;1.10;;;12.00;99.90;;;;;;6219639;28;20057;-77
2023/11/10 11:56:14;;;;;;;4.57;0.85;;;12.10;99.90;;;;;;6242659;22;20053;-77
2023/11/10 11:59:18;;;;;;;2.42;1.00;;;11.90;99.90;;;;;;6221282;28;20046;-77
2023/11/10 12:02:19;;;;;;;0.75;0.75;;;11.90;99.90;;;;;;6221309;28;20046;-77
2023/11/10 12:05:21;;;;;;;2.65;0.68;;;11.80;99.90;;;;;;6220900;28;20050;-77
2023/11/10 12:08:23;;;;;;;10.05;1.80;;;11.90;99.90;;;;;;6213418;28;20077;-78
2023/11/10 12:11:25;;;;;;;3.17;0.70;;;11.90;99.90;;;;;;6220213;28;20049;-76
2023/11/10 12:14:29;;;;;;;1.27;0.55;;;12.20;99.90;;;;;;6221801;28;20066;-77
2023/11/10 12:17:32;;;;;;;2.15;0.63;;;12.90;99.90;;;;;;6222536;28;20049;-77
2023/11/10 12:20:35;;;;;;;0.45;0.45;;;13.50;99.90;;;;;;6226735;28;20041;-77
2023/11/10 12:23:37;;;;;;;4.18;0.80;;;13.80;99.90;;;;;;6220401;28;20050;-76
2023/11/10 12:26:41;;;;;;;1.35;0.88;;;13.80;99.90;;;;;;6222684;28;20056;-76
2023/11/10 12:29:45;;;;;;;1.52;0.68;;;14.00;99.90;;;;;;6221673;28;20034;-76
2023/11/10 12:32:49;;;;;;;28.08;13.45;;;14.00;99.90;;;;;;6221142;28;20046;-76
2023/11/10 12:35:51;;;;;;;12.02;5.90;;;14.10;99.90;;;;;;6223254;28;20060;-75
2023/11/10 12:38:52;;;;;;;2.13;1.38;;;14.20;99.90;;;;;;6224210;28;20041;-76
2023/11/10 12:41:58;;;;;;;11.02;5.57;;;14.40;99.90;;;;;;6217882;28;20406;-76
2023/11/10 12:45:01;;;;;;;2.85;2.03;;;14.50;99.90;;;;;;6217598;28;20454;-76
2023/11/10 12:48:12;;;;;;;2.20;1.88;;;14.50;99.90;;;;;;6216741;28;20410;-76
2023/11/10 12:51:14;;;;;;;1.63;0.98;;;14.50;99.90;;;;;;6221747;28;20046;-77
2023/11/10 12:54:15;;;;;;;3.45;0.70;;;14.30;99.90;;;;;;6226232;28;20103;-77
2023/11/10 12:57:17;;;;;;;0.90;0.63;;;13.90;99.90;;;;;;6223578;28;20121;-77
2023/11/10 13:00:21;;;;;;;10.50;3.17;;;13.60;99.90;;;;;;6223769;28;20054;-77
2023/11/10 13:03:23;;;;;;;5.07;1.40;;;13.30;99.90;;;;;;6223733;28;20359;-77
2023/11/10 13:06:25;;;;;;;0.77;0.38;;;13.00;99.90;;;;;;6224061;28;20045;-76
2023/11/10 13:09:29;;;;;;;2.45;0.40;;;12.70;99.90;;;;;;6216290;28;20140;-76
2023/11/10 13:12:31;;;;;;;1.80;1.42;;;12.40;99.90;;;;;;6226427;28;20050;-77
2023/11/10 13:15:34;;;;;;;2.17;0.70;;;12.20;99.90;;;;;;6223931;28;20590;-76
2023/11/10 13:18:36;;;;;;;1.70;0.60;;;12.00;99.90;;;;;;6224721;28;20148;-77
2023/11/10 13:21:38;;;;;;;3.53;1.13;;;11.80;99.90;;;;;;6226437;28;20056;-77
2023/11/10 13:24:40;;;;;;;1.95;0.80;;;11.70;99.90;;;;;;6224457;28;20133;-77
2023/11/10 13:27:42;;;;;;;2.15;0.50;;;11.60;99.90;;;;;;6223253;28;20053;-78
2023/11/10 13:30:45;;;;;;;1.17;0.50;;;11.50;99.90;;;;;;6229746;28;20052;-78
2023/11/10 13:33:47;;;;;;;3.60;0.60;;;11.50;99.90;;;;;;6231317;28;20050;-79
2023/11/10 13:36:50;;;;;;;1.85;0.88;;;11.50;99.90;;;;;;6226130;28;20061;-76
2023/11/10 13:39:52;;;;;;;0.25;0.25;;;11.50;99.90;;;;;;6224803;28;20037;-77
2023/11/10 13:42:53;;;;;;;4.38;0.60;;;11.40;99.90;;;;;;6226679;28;20050;-78
2023/11/10 13:45:57;;;;;;;1.65;0.43;;;11.40;99.90;;;;;;6228560;28;20425;-78
2023/11/10 13:48:58;;;;;;;7.53;5.03;;;11.30;99.90;;;;;;6224597;28;20046;-79
2023/11/10 13:52:00;;;;;;;1.17;0.75;;;11.40;99.90;;;;;;6226501;28;20046;-77
2023/11/10 13:55:03;;;;;;;2.72;0.68;;;11.50;99.90;;;;;;6229386;28;20052;-79
2023/11/10 13:58:05;;;;;;;5.68;1.35;;;11.60;99.90;;;;;;6236163;28;20046;-79
2023/11/10 14:01:09;;;;;;;1.60;0.80;;;11.70;99.90;;;;;;6231794;28;20045;-79
2023/11/10 14:04:11;;;;;;;0.55;0.40;;;11.70;99.90;;;;;;6230364;28;20077;-78
2023/11/10 14:07:13;;;;;;;1.55;0.90;;;11.80;99.90;;;;;;6218879;28;20050;-78
2023/11/10 14:10:15;;;;;;;1.73;0.65;;;12.00;99.90;;;;;;6218735;28;20041;-78
2023/11/10 14:13:17;;;;;;;3.05;1.15;;;12.10;99.90;;;;;;6217821;28;20529;-79
2023/11/10 14:16:20;;;;;;;2.55;0.68;;;12.20;99.90;;;;;;6215979;28;20490;-79
2023/11/10 14:19:22;;;;;;;0.57;0.57;;;12.30;99.90;;;;;;6215571;28;20056;-77
2023/11/10 14:22:25;;;;;;;2.20;0.70;;;12.40;99.90;;;;;;6217734;28;20038;-78
2023/11/10 14:25:27;;;;;;;0.90;0.30;;;12.40;99.90;;;;;;6223759;28;20145;-79
2023/11/10 14:28:29;;;;;;;2.05;0.75;;;12.40;99.90;;;;;;6229023;28;20056;-79
2023/11/10 14:31:32;;;;;;;1.77;0.68;;;12.20;99.90;;;;;;6225265;28;20046;-79
2023/11/10 14:34:33;;;;;;;4.22;1.08;;;12.00;99.90;;;;;;6219842;28;20478;-78
2023/11/10 14:37:35;;;;;;;1.38;1.02;;;11.70;99.90;;;;;;6221614;28;20549;-77
2023/11/10 14:40:41;;;;;;;2.50;1.48;;;11.50;99.90;;;;;;6222065;28;20197;-77
2023/11/10 14:43:44;;;;;;;1.55;1.00;;;11.30;99.90;;;;;;6223687;28;20053;-78
2023/11/10 14:46:49;;;;;;;3.90;0.60;;;11.10;99.90;;;;;;6222735;28;20042;-77
2023/11/10 14:49:54;;;;;;;3.22;0.70;;;11.00;99.90;;;;;;6225274;28;20099;-77
2023/11/10 14:52:56;;;;;;;1.23;0.88;;;10.90;99.90;;;;;;6223840;28;20049;-78
2023/11/10 14:55:58;;;;;;;3.95;0.70;;;10.90;99.90;;;;;;6229469;28;20046;-78
2023/11/10 14:58:59;;;;;;;1.15;0.95;;;10.90;99.90;;;;;;6226703;28;20038;-78
2023/11/10 15:02:03;;;;;;;2.15;0.88;;;10.80;99.90;;;;;;6224507;28;20045;-78
2023/11/10 15:05:07;;;;;;;3.67;0.80;;;10.70;99.90;;;;;;6215265;28;20133;-77
2023/11/10 15:08:10;;;;;;;1.73;1.10;;;10.50;99.90;;;;;;6217270;28;20095;-78
2023/11/10 15:11:13;;;;;;;2.53;0.90;;;10.30;99.90;;;;;;6215716;28;20038;-77
2023/11/10 15:14:15;;;;;;;2.95;0.70;;;10.10;99.90;;;;;;6213490;28;20046;-77
2023/11/10 15:17:18;;;;;;;0.68;0.35;;;9.80;99.90;;;;;;6212200;28;20536;-77
2023/11/10 15:20:20;;;;;;;1.55;0.55;;;9.60;99.90;;;;;;6210808;28;20414;-77
2023/11/10 15:23:23;;;;;;;0.80;0.50;;;9.30;99.90;;;;;;6212870;28;20071;-77
2023/11/10 15:26:25;;;;;;;1.15;0.55;;;9.30;99.90;;;;;;6211781;28;20049;-77
2023/11/10 15:29:27;;;;;;;0.95;0.68;;;9.30;99.90;;;;;;6212567;28;20046;-77
2023/11/10 15:32:31;;;;;;;1.27;0.70;;;9.20;99.90;;;;;;6213311;28;20129;-77
2023/11/10 15:35:32;;;;;;;1.35;0.70;;;9.20;99.90;;;;;;6211287;28;20042;-77
2023/11/10 15:38:36;;;;;;;1.20;0.90;;;9.10;99.90;;;;;;6214734;28;20046;-77
2023/11/10 15:41:38;;;;;;;2.85;0.85;;;9.00;99.90;;;;;;6209392;28;20058;-76
2023/11/10 15:44:40;;;;;;;1.20;0.80;;;8.90;99.90;;;;;;6219624;28;20046;-77
2023/11/10 15:47:43;;;;;;;2.03;0.95;;;8.70;99.90;;;;;;6211569;28;20042;-79
2023/11/10 15:50:45;;;;;;;2.22;0.75;;;8.60;99.90;;;;;;6224192;28;20524;-76
2023/11/10 15:53:47;;;;;;;3.30;1.02;;;8.50;99.90;;;;;;6227381;28;20050;-78
2023/11/10 15:56:49;;;;;;;0.90;0.60;;;8.30;99.90;;;;;;6226068;28;20053;-77
2023/11/10 15:59:51;;;;;;;5.47;1.38;;;8.20;99.90;;;;;;6227264;28;20056;-77
2023/11/10 16:02:54;;;;;;;1.15;0.68;;;8.10;99.90;;;;;;6227124;28;20585;-78
2023/11/10 16:05:55;;;;;;;3.92;1.00;;;8.10;99.90;;;;;;6220353;28;20052;-77
2023/11/10 16:08:58;;;;;;;2.03;0.80;;;8.20;99.90;;;;;;6215530;28;20057;-77
2023/11/10 16:11:59;;;;;;;4.95;0.85;;;8.20;99.90;;;;;;6216247;28;20699;-78